Time;durP1;ratioP1;P1;durP2;ratioP2;P2;SDS_P1;SDS_P2;PMS_P1;PMS_P2;Temp;Humidity;BMP_temperature;BMP_pressure;BME280_temperature;BME280_humidity;BME280_pressure;Samples;Min_cycle;Max_cycle;Signal;HPM_P1;HPM_P2
2022/04/25 00:00:06;;;;;;;2.13;1.48;;;11.20;99.90;;;;;;5115822;28;20504;-71
2022/04/25 00:02:32;;;;;;;1.60;1.42;;;11.20;99.90;;;;;;5114461;28;20092;-71
2022/04/25 00:04:57;;;;;;;2.13;1.50;;;11.20;99.90;;;;;;5115049;28;20023;-71
2022/04/25 00:07:23;;;;;;;1.40;1.00;;;11.10;99.90;;;;;;5115277;28;20483;-70
2022/04/25 00:09:49;;;;;;;2.53;1.02;;;11.10;99.90;;;;;;5114278;28;20033;-71
2022/04/25 00:12:15;;;;;;;1.17;1.08;;;11.10;99.90;;;;;;5115146;28;20027;-70
2022/04/25 00:14:41;;;;;;;1.08;0.85;;;11.10;99.90;;;;;;5114460;28;20055;-71
2022/04/25 00:17:07;;;;;;;1.02;0.95;;;11.10;99.90;;;;;;5114968;28;20027;-68
2022/04/25 00:19:33;;;;;;;1.05;0.93;;;11.10;99.90;;;;;;5114444;28;20551;-70
2022/04/25 00:21:59;;;;;;;1.70;1.00;;;11.10;99.90;;;;;;5114635;28;20066;-70
2022/04/25 00:24:24;;;;;;;4.32;1.10;;;11.10;99.90;;;;;;5114966;28;20476;-70
2022/04/25 00:26:50;;;;;;;3.60;1.05;;;11.00;99.90;;;;;;5114232;28;20107;-70
2022/04/25 00:29:16;;;;;;;0.70;0.70;;;11.00;99.90;;;;;;5114494;28;20027;-70
2022/04/25 00:31:41;;;;;;;1.60;1.15;;;10.90;99.90;;;;;;5114187;28;20026;-70
2022/04/25 00:34:07;;;;;;;1.08;0.80;;;10.90;99.90;;;;;;5114485;28;20023;-70
2022/04/25 00:36:33;;;;;;;0.68;0.68;;;10.90;99.90;;;;;;5113668;28;20019;-70
2022/04/25 00:38:59;;;;;;;1.20;0.80;;;10.90;99.90;;;;;;5114556;27;20043;-70
2022/04/25 00:41:24;;;;;;;0.60;0.50;;;10.80;99.90;;;;;;5114334;28;20407;-71
2022/04/25 00:43:59;;;;;;;1.75;0.70;;;10.80;99.90;;;;;;5114310;28;20031;-71
2022/04/25 00:46:26;;;;;;;2.80;0.85;;;10.80;99.90;;;;;;5114649;27;20468;-70
2022/04/25 00:48:52;;;;;;;0.55;0.50;;;10.70;99.90;;;;;;5113878;28;20059;-70
2022/04/25 00:51:19;;;;;;;0.95;0.60;;;10.70;99.90;;;;;;5114133;28;20104;-69
2022/04/25 00:53:46;;;;;;;0.45;0.45;;;10.70;99.90;;;;;;5113792;28;20028;-70
2022/04/25 00:56:15;;;;;;;1.52;0.50;;;10.70;99.90;;;;;;5114088;28;20032;-70
2022/04/25 00:58:46;;;;;;;0.50;0.50;;;10.60;99.90;;;;;;5113399;28;20492;-70
2022/04/25 01:01:13;;;;;;;0.65;0.60;;;10.70;99.90;;;;;;5114471;28;20032;-70
2022/04/25 01:03:39;;;;;;;0.63;0.52;;;10.70;99.90;;;;;;5112353;28;20373;-71
2022/04/25 01:06:05;;;;;;;0.68;0.60;;;10.70;99.90;;;;;;5114011;28;20038;-70
2022/04/25 01:08:34;;;;;;;0.30;0.30;;;10.70;99.90;;;;;;5114165;28;20426;-70
2022/04/25 01:11:03;;;;;;;1.38;0.50;;;10.70;99.90;;;;;;5113778;28;20038;-70
2022/04/25 01:13:28;;;;;;;0.40;0.40;;;10.70;99.90;;;;;;5113687;28;20098;-70
2022/04/25 01:15:54;;;;;;;1.63;0.60;;;10.80;99.90;;;;;;5112958;28;20110;-70
2022/04/25 01:18:20;;;;;;;0.50;0.50;;;10.80;99.90;;;;;;5113569;28;20400;-70
2022/04/25 01:20:45;;;;;;;0.82;0.45;;;10.80;99.90;;;;;;5113018;28;20063;-70
2022/04/25 01:28:51;;;;;;;1.58;0.43;;;10.90;99.90;;;;;;5113165;28;20072;-70
2022/04/25 01:31:17;;;;;;;0.38;0.30;;;10.90;99.90;;;;;;5113426;28;20441;-70
2022/04/25 01:33:42;;;;;;;0.40;0.25;;;10.90;99.90;;;;;;5112781;28;20030;-70
2022/04/25 01:36:08;;;;;;;0.40;0.40;;;10.90;99.90;;;;;;5113406;28;20035;-70
2022/04/25 01:38:34;;;;;;;0.40;0.40;;;10.90;99.90;;;;;;5113289;28;20429;-71
2022/04/25 01:41:00;;;;;;;1.67;0.50;;;10.90;99.90;;;;;;5113173;28;20028;-70
2022/04/25 01:43:25;;;;;;;1.67;0.68;;;11.00;99.90;;;;;;5112081;28;20020;-70
2022/04/25 01:45:51;;;;;;;0.30;0.30;;;11.00;99.90;;;;;;5112774;28;20114;-71
2022/04/25 01:48:17;;;;;;;0.40;0.40;;;11.00;99.90;;;;;;5112242;28;20483;-70
2022/04/25 01:50:43;;;;;;;0.50;0.50;;;11.00;99.90;;;;;;5112650;28;20031;-70
2022/04/25 01:53:08;;;;;;;0.60;0.40;;;11.10;99.90;;;;;;5113274;28;20019;-70
2022/04/25 01:55:34;;;;;;;1.10;0.40;;;11.10;99.90;;;;;;5112884;28;20019;-70
2022/04/25 01:58:00;;;;;;;0.68;0.40;;;11.10;99.90;;;;;;5112741;28;20039;-70
2022/04/25 02:00:26;;;;;;;1.58;0.40;;;11.10;99.80;;;;;;5113072;28;20088;-70
2022/04/25 02:02:52;;;;;;;0.60;0.30;;;11.10;99.70;;;;;;5112506;28;20023;-70
2022/04/25 02:05:17;;;;;;;0.40;0.40;;;11.10;99.30;;;;;;5113050;28;20054;-70
2022/04/25 02:07:43;;;;;;;1.08;0.50;;;11.20;99.30;;;;;;5111180;28;20034;-70
2022/04/25 02:10:09;;;;;;;1.42;0.30;;;11.20;99.20;;;;;;5112877;28;20028;-70
2022/04/25 02:12:35;;;;;;;0.52;0.30;;;11.20;99.00;;;;;;5112982;28;20036;-70
2022/04/25 02:15:01;;;;;;;0.65;0.30;;;11.20;98.70;;;;;;5109744;28;20052;-70
2022/04/25 02:17:27;;;;;;;1.00;0.50;;;11.30;98.80;;;;;;5111123;28;20119;-70
2022/04/25 02:19:52;;;;;;;0.95;0.43;;;11.30;98.60;;;;;;5111872;28;20114;-69
2022/04/25 02:22:19;;;;;;;0.30;0.30;;;11.30;98.50;;;;;;5112455;28;20036;-69
2022/04/25 02:24:45;;;;;;;0.65;0.45;;;11.30;98.30;;;;;;5112083;28;20506;-70
2022/04/25 02:27:10;;;;;;;0.35;0.32;;;11.40;98.40;;;;;;5112504;28;20032;-70
2022/04/25 02:29:39;;;;;;;0.60;0.50;;;11.40;98.20;;;;;;5112679;28;20031;-70
2022/04/25 02:32:05;;;;;;;0.90;0.50;;;11.40;98.00;;;;;;5112688;28;20126;-70
2022/04/25 02:34:31;;;;;;;0.60;0.50;;;11.40;98.00;;;;;;5112633;28;20463;-70
2022/04/25 02:36:57;;;;;;;1.17;0.50;;;11.40;98.00;;;;;;5110597;28;20078;-70
2022/04/25 02:39:24;;;;;;;0.43;0.40;;;11.50;97.90;;;;;;5112375;28;20024;-70
2022/04/25 02:41:50;;;;;;;0.50;0.50;;;11.50;98.00;;;;;;5111933;28;20034;-70
2022/04/25 02:44:17;;;;;;;0.47;0.47;;;11.50;97.90;;;;;;5112667;28;20409;-70
2022/04/25 02:46:42;;;;;;;0.65;0.40;;;11.50;97.90;;;;;;5111667;28;20468;-70
2022/04/25 02:49:08;;;;;;;1.00;0.40;;;11.50;97.90;;;;;;5112545;28;20034;-71
2022/04/25 02:51:34;;;;;;;0.38;0.38;;;11.50;97.90;;;;;;5112576;28;20102;-71
2022/04/25 02:53:59;;;;;;;0.40;0.40;;;11.50;97.80;;;;;;5112096;28;20034;-71
2022/04/25 02:56:25;;;;;;;1.63;0.40;;;11.50;97.50;;;;;;5112363;28;20027;-70
2022/04/25 02:58:50;;;;;;;0.40;0.40;;;11.50;97.40;;;;;;5111811;28;20088;-70
2022/04/25 03:01:16;;;;;;;0.52;0.30;;;11.50;97.30;;;;;;5111683;28;20483;-70
2022/04/25 03:03:42;;;;;;;0.38;0.38;;;11.50;97.30;;;;;;5111554;28;20031;-71
2022/04/25 03:06:09;;;;;;;0.73;0.30;;;11.50;97.30;;;;;;5111992;28;20027;-70
2022/04/25 03:08:36;;;;;;;0.40;0.30;;;11.50;97.20;;;;;;5112370;28;20134;-70
2022/04/25 03:11:04;;;;;;;2.58;0.50;;;11.50;97.30;;;;;;5111486;28;20032;-70
2022/04/25 03:13:31;;;;;;;0.47;0.30;;;11.40;97.40;;;;;;5112062;28;20051;-70
2022/04/25 03:15:57;;;;;;;1.23;0.30;;;11.40;97.20;;;;;;5111559;28;20020;-70
2022/04/25 03:18:23;;;;;;;0.30;0.30;;;11.40;97.30;;;;;;5112374;28;20102;-71
2022/04/25 03:20:50;;;;;;;1.35;0.30;;;11.40;97.50;;;;;;5111657;28;20027;-71
2022/04/25 03:23:21;;;;;;;1.88;0.50;;;11.50;97.60;;;;;;5112051;28;20032;-71
2022/04/25 03:25:48;;;;;;;0.30;0.30;;;11.50;97.80;;;;;;5112703;28;20031;-71
2022/04/25 03:28:14;;;;;;;0.35;0.35;;;11.50;97.90;;;;;;5116046;28;20035;-71
2022/04/25 03:30:41;;;;;;;0.50;0.30;;;11.40;98.10;;;;;;5116319;28;20028;-71
2022/04/25 03:33:11;;;;;;;1.73;0.32;;;11.40;98.30;;;;;;5115879;28;20540;-71
2022/04/25 03:35:37;;;;;;;0.45;0.45;;;11.50;98.60;;;;;;5115910;28;20038;-70
2022/04/25 03:38:03;;;;;;;0.40;0.40;;;11.50;98.60;;;;;;5114852;28;20050;-70
2022/04/25 03:40:28;;;;;;;0.47;0.30;;;11.40;98.70;;;;;;5115881;28;20380;-70
2022/04/25 03:42:56;;;;;;;0.40;0.40;;;11.50;99.00;;;;;;5115218;28;20438;-70
2022/04/25 03:45:22;;;;;;;0.70;0.32;;;11.50;98.80;;;;;;5115496;28;20380;-70
2022/04/25 03:47:48;;;;;;;1.42;0.40;;;11.40;99.00;;;;;;5115000;28;20039;-70
2022/04/25 03:50:15;;;;;;;1.58;0.45;;;11.40;99.10;;;;;;5116087;28;20034;-69
2022/04/25 03:52:43;;;;;;;0.30;0.30;;;11.40;99.30;;;;;;5115607;28;20032;-70
2022/04/25 03:57:56;;;;;;;1.33;0.50;;;11.40;99.80;;;;;;5114502;28;20117;-70
2022/04/25 04:00:22;;;;;;;0.40;0.40;;;11.30;99.90;;;;;;5115350;28;20453;-70
2022/04/25 04:02:48;;;;;;;0.40;0.40;;;11.30;99.90;;;;;;5114456;28;20101;-70
2022/04/25 04:05:14;;;;;;;0.40;0.40;;;11.30;99.90;;;;;;5115357;28;20102;-70
2022/04/25 04:07:40;;;;;;;0.80;0.50;;;11.30;99.90;;;;;;5114975;28;20091;-70
2022/04/25 04:10:07;;;;;;;0.40;0.40;;;11.30;99.90;;;;;;5114296;28;20028;-70
2022/04/25 04:12:34;;;;;;;2.78;0.50;;;11.30;99.90;;;;;;5115194;28;20042;-70
2022/04/25 04:15:04;;;;;;;0.52;0.45;;;11.30;99.90;;;;;;5114585;28;20482;-70
2022/04/25 04:17:31;;;;;;;1.95;0.40;;;11.30;99.90;;;;;;5115100;28;20035;-70
2022/04/25 04:19:57;;;;;;;0.40;0.40;;;11.30;99.90;;;;;;5114770;28;20039;-70
2022/04/25 04:22:25;;;;;;;0.32;0.32;;;11.30;99.90;;;;;;5114869;28;20055;-70
2022/04/25 04:24:51;;;;;;;0.52;0.52;;;11.30;99.90;;;;;;5114284;28;20036;-69
2022/04/25 04:27:17;;;;;;;0.52;0.40;;;11.40;99.90;;;;;;5114915;28;20059;-70
2022/04/25 04:29:44;;;;;;;0.60;0.60;;;11.30;99.90;;;;;;5114554;28;20023;-70
2022/04/25 04:32:10;;;;;;;2.05;0.70;;;11.30;99.90;;;;;;5114274;28;20023;-70
2022/04/25 04:34:36;;;;;;;0.85;0.60;;;11.30;99.90;;;;;;5114755;28;20023;-70
2022/04/25 04:37:03;;;;;;;1.27;0.70;;;11.40;99.90;;;;;;5112081;28;20039;-70
2022/04/25 04:39:31;;;;;;;1.52;0.85;;;11.40;99.90;;;;;;5115076;28;20379;-70
2022/04/25 04:41:57;;;;;;;1.80;0.60;;;11.40;99.90;;;;;;5114106;28;20035;-70
2022/04/25 04:44:22;;;;;;;0.20;0.20;;;11.40;99.90;;;;;;5114727;28;20077;-70
2022/04/25 04:46:48;;;;;;;1.02;0.60;;;11.50;99.90;;;;;;5113842;28;20464;-71
2022/04/25 04:49:15;;;;;;;2.10;0.40;;;11.50;99.90;;;;;;5114640;28;20020;-70
2022/04/25 04:51:40;;;;;;;0.63;0.50;;;11.50;99.90;;;;;;5114319;28;20019;-70
2022/04/25 04:54:06;;;;;;;0.47;0.47;;;11.50;99.90;;;;;;5113509;28;20020;-70
2022/04/25 04:56:32;;;;;;;0.70;0.55;;;11.50;99.90;;;;;;5114057;28;20464;-70
2022/04/25 04:59:02;;;;;;;3.10;0.60;;;11.50;99.90;;;;;;5114089;28;20487;-70
2022/04/25 05:01:28;;;;;;;0.50;0.50;;;11.50;99.90;;;;;;5113805;28;20028;-70
2022/04/25 05:03:58;;;;;;;0.70;0.70;;;11.60;99.90;;;;;;5113449;28;20124;-70
2022/04/25 05:06:27;;;;;;;0.70;0.60;;;11.60;99.90;;;;;;5114351;28;20518;-70
2022/04/25 05:08:54;;;;;;;2.35;0.60;;;11.60;99.90;;;;;;5113507;28;20031;-70
2022/04/25 05:11:20;;;;;;;0.47;0.38;;;11.60;99.90;;;;;;5113843;28;20027;-70
2022/04/25 05:13:45;;;;;;;0.70;0.50;;;11.60;99.90;;;;;;5113735;28;20054;-70
2022/04/25 05:16:11;;;;;;;1.02;0.60;;;11.60;99.90;;;;;;5113348;28;20383;-70
2022/04/25 05:18:37;;;;;;;2.00;0.50;;;11.70;99.90;;;;;;5113574;28;20032;-70
2022/04/25 05:21:04;;;;;;;2.33;0.57;;;11.70;99.90;;;;;;5112957;28;20030;-70
2022/04/25 05:23:31;;;;;;;0.68;0.60;;;11.70;99.90;;;;;;5113624;28;20031;-70
2022/04/25 05:25:58;;;;;;;0.52;0.43;;;11.70;99.90;;;;;;5113312;28;20102;-70
2022/04/25 05:28:25;;;;;;;0.80;0.65;;;11.70;99.90;;;;;;5113589;28;20067;-70
2022/04/25 05:30:51;;;;;;;0.60;0.60;;;11.70;99.90;;;;;;5113606;28;20107;-71
2022/04/25 05:33:18;;;;;;;0.82;0.60;;;11.80;99.90;;;;;;5113245;28;20491;-71
2022/04/25 05:35:44;;;;;;;1.20;0.52;;;11.80;99.90;;;;;;5112354;28;20481;-71
2022/04/25 05:38:12;;;;;;;0.98;0.70;;;11.80;99.90;;;;;;5112643;28;20055;-71
2022/04/25 05:41:15;;;;;;;2.70;0.70;;;11.80;99.90;;;;;;5113472;28;20034;-71
2022/04/25 05:43:40;;;;;;;2.53;0.70;;;11.90;99.90;;;;;;5113136;28;20024;-71
2022/04/25 05:46:06;;;;;;;2.15;0.80;;;11.90;99.90;;;;;;5112666;28;20027;-71
2022/04/25 05:54:01;;;;;;;0.52;0.52;;;12.00;99.90;;;;;;5112329;28;20081;-70
2022/04/25 05:56:27;;;;;;;1.40;0.63;;;12.00;99.90;;;;;;5112981;27;20066;-70
2022/04/25 05:58:53;;;;;;;2.45;0.73;;;12.00;99.90;;;;;;5113090;28;20062;-70
2022/04/25 06:01:19;;;;;;;1.27;0.90;;;12.00;99.90;;;;;;5112809;28;20445;-70
2022/04/25 06:03:45;;;;;;;1.00;0.73;;;12.00;99.90;;;;;;5113009;28;20053;-70
2022/04/25 06:06:10;;;;;;;1.20;0.70;;;12.00;99.90;;;;;;5112176;28;20027;-70
2022/04/25 06:08:36;;;;;;;2.97;0.63;;;12.10;99.90;;;;;;5112587;28;20023;-70
2022/04/25 06:11:21;;;;;;;1.17;0.65;;;12.10;99.90;;;;;;5111991;28;20460;-70
2022/04/25 06:13:47;;;;;;;1.38;0.60;;;12.10;99.90;;;;;;5112447;28;20056;-70
2022/04/25 06:16:13;;;;;;;1.60;0.90;;;12.10;99.90;;;;;;5110690;28;20027;-70
2022/04/25 06:18:39;;;;;;;1.48;0.70;;;12.10;99.90;;;;;;5112810;28;20066;-70
2022/04/25 06:21:05;;;;;;;0.63;0.60;;;12.10;99.90;;;;;;5111006;28;20048;-71
2022/04/25 06:23:31;;;;;;;3.78;0.70;;;12.20;99.90;;;;;;5112459;28;20383;-71
2022/04/25 06:25:57;;;;;;;0.98;0.60;;;12.20;99.90;;;;;;5111612;28;20478;-71
2022/04/25 06:28:26;;;;;;;1.10;0.82;;;12.20;99.90;;;;;;5112787;28;20025;-70
2022/04/25 06:30:52;;;;;;;1.02;0.82;;;12.20;99.90;;;;;;5111314;28;20028;-70
2022/04/25 06:33:18;;;;;;;3.65;0.90;;;12.20;99.90;;;;;;5111926;28;20368;-71
2022/04/25 06:35:44;;;;;;;0.88;0.82;;;12.20;99.90;;;;;;5112167;28;20024;-70
2022/04/25 06:38:11;;;;;;;1.58;0.90;;;12.20;99.90;;;;;;5111639;28;20031;-71
2022/04/25 06:40:37;;;;;;;0.82;0.73;;;12.20;99.90;;;;;;5111953;28;20023;-70
2022/04/25 06:43:03;;;;;;;2.35;0.95;;;12.20;99.90;;;;;;5111563;28;20027;-70
2022/04/25 06:45:30;;;;;;;2.00;1.00;;;12.30;99.90;;;;;;5112070;28;20020;-70
2022/04/25 06:47:56;;;;;;;2.65;1.13;;;12.30;99.90;;;;;;5111892;28;20472;-70
2022/04/25 06:50:22;;;;;;;2.15;1.10;;;12.30;99.90;;;;;;5111625;28;20076;-70
2022/04/25 06:52:48;;;;;;;2.15;1.40;;;12.30;99.90;;;;;;5112553;28;20023;-71
2022/04/25 06:55:14;;;;;;;2.55;1.15;;;12.30;99.90;;;;;;5111468;28;20019;-71
2022/04/25 06:57:39;;;;;;;3.50;1.20;;;12.30;99.90;;;;;;5112179;28;20418;-70
2022/04/25 07:00:09;;;;;;;2.75;1.52;;;12.30;99.90;;;;;;5111785;28;20520;-70
2022/04/25 07:02:36;;;;;;;1.50;1.27;;;12.40;99.90;;;;;;5116474;28;20024;-70
2022/04/25 07:05:04;;;;;;;2.63;1.20;;;12.40;99.80;;;;;;5115139;28;20048;-71
2022/04/25 07:07:31;;;;;;;3.05;1.40;;;12.50;99.50;;;;;;5115980;28;20023;-70
2022/04/25 07:09:56;;;;;;;3.67;1.25;;;12.40;99.30;;;;;;5116413;28;20023;-70
2022/04/25 07:12:22;;;;;;;1.65;1.23;;;12.70;99.70;;;;;;5115247;28;20019;-70
2022/04/25 07:14:49;;;;;;;2.33;1.45;;;12.90;98.80;;;;;;5115863;28;20454;-70
2022/04/25 07:17:15;;;;;;;2.25;1.40;;;13.90;97.40;;;;;;5115431;28;20032;-70
2022/04/25 07:19:41;;;;;;;3.22;1.83;;;15.90;91.40;;;;;;5116127;28;20034;-70
2022/04/25 07:30:23;;;;;;;3.38;1.23;;;21.00;60.10;;;;;;5115142;28;20122;-69
2022/04/25 07:32:49;;;;;;;2.28;1.20;;;21.00;55.90;;;;;;5115571;28;20110;-70
2022/04/25 07:35:14;;;;;;;2.60;1.35;;;19.30;58.30;;;;;;5115251;28;20028;-70
2022/04/25 07:37:40;;;;;;;2.90;1.10;;;18.30;61.90;;;;;;5115696;28;20059;-70
2022/04/25 07:40:08;;;;;;;1.85;1.30;;;17.50;65.60;;;;;;5115015;28;20023;-70
2022/04/25 07:42:35;;;;;;;3.83;1.50;;;16.80;68.00;;;;;;5115826;28;20028;-70
2022/04/25 07:45:02;;;;;;;1.23;1.13;;;16.20;70.90;;;;;;5115629;28;20525;-70
2022/04/25 07:47:28;;;;;;;1.75;1.30;;;15.80;73.90;;;;;;5115410;28;20032;-70
2022/04/25 07:49:53;;;;;;;1.50;1.40;;;15.70;75.40;;;;;;5115797;28;20026;-70
2022/04/25 07:52:19;;;;;;;2.67;1.63;;;15.80;77.40;;;;;;5114756;28;20015;-70
2022/04/25 07:54:45;;;;;;;2.10;1.90;;;15.70;76.20;;;;;;5115127;28;20027;-70
2022/04/25 07:57:10;;;;;;;5.20;1.80;;;15.50;76.90;;;;;;5114418;28;20027;-70
2022/04/25 07:59:36;;;;;;;3.92;1.80;;;15.30;78.40;;;;;;5115351;28;20088;-70
2022/04/25 08:02:03;;;;;;;3.05;1.88;;;15.60;77.10;;;;;;5115279;28;20058;-70
2022/04/25 08:04:48;;;;;;;4.10;1.95;;;15.50;78.20;;;;;;5113940;28;20133;-70
2022/04/25 08:07:14;;;;;;;5.82;1.90;;;15.60;78.20;;;;;;5114720;28;20036;-70
2022/04/25 08:09:40;;;;;;;4.43;1.92;;;15.80;78.30;;;;;;5115143;28;20375;-70
2022/04/25 08:20:18;;;;;;;2.78;1.33;;;14.90;78.70;;;;;;5114351;28;20074;-70
2022/04/25 08:22:45;;;;;;;2.10;1.60;;;14.80;80.20;;;;;;5113752;28;20048;-70
2022/04/25 08:25:11;;;;;;;2.70;1.30;;;14.70;80.90;;;;;;5114321;28;20031;-70
2022/04/25 08:27:37;;;;;;;5.03;1.50;;;14.80;82.30;;;;;;5114515;28;20388;-70
2022/04/25 08:30:04;;;;;;;3.05;1.27;;;14.80;82.70;;;;;;5114934;28;20085;-71
2022/04/25 08:32:33;;;;;;;1.67;1.30;;;14.70;81.40;;;;;;5114327;28;20096;-71
2022/04/25 08:35:01;;;;;;;1.20;1.10;;;15.00;82.30;;;;;;5113936;28;20024;-71
2022/04/25 08:37:27;;;;;;;2.63;1.27;;;15.50;82.10;;;;;;5114018;28;20114;-69
2022/04/25 08:39:52;;;;;;;4.45;1.40;;;16.20;77.90;;;;;;5114675;28;20038;-70
2022/04/25 08:42:20;;;;;;;1.52;1.10;;;16.60;75.40;;;;;;5114314;28;20456;-70
2022/04/25 08:44:52;;;;;;;8.13;1.90;;;16.80;73.90;;;;;;5114713;28;20024;-70
2022/04/25 08:47:18;;;;;;;7.22;2.38;;;16.90;70.90;;;;;;5114043;28;20024;-70
2022/04/25 08:49:44;;;;;;;3.95;1.67;;;17.00;70.00;;;;;;5114299;28;20119;-71
2022/04/25 08:52:10;;;;;;;1.45;1.35;;;17.20;68.20;;;;;;5113951;28;20053;-70
2022/04/25 08:54:36;;;;;;;3.88;1.52;;;17.20;68.10;;;;;;5114403;28;20110;-70
2022/04/25 08:57:03;;;;;;;2.42;1.52;;;17.30;68.50;;;;;;5113793;28;20024;-70
2022/04/25 08:59:31;;;;;;;2.80;1.20;;;17.30;66.70;;;;;;5113354;28;20156;-70
2022/04/25 09:01:57;;;;;;;5.22;1.40;;;17.20;65.90;;;;;;5114182;28;20032;-70
2022/04/25 09:04:23;;;;;;;1.95;1.40;;;17.00;64.70;;;;;;5113212;28;20031;-70
2022/04/25 09:06:55;;;;;;;5.03;1.40;;;16.90;65.30;;;;;;5112563;28;20468;-72
2022/04/25 09:09:21;;;;;;;2.10;1.20;;;16.80;65.30;;;;;;5113400;28;20026;-70
2022/04/25 09:14:31;;;;;;;1.45;1.30;;;16.60;66.70;;;;;;5113235;28;20078;-70
2022/04/25 09:16:58;;;;;;;1.20;1.10;;;16.30;67.50;;;;;;5113715;28;20035;-70
2022/04/25 09:19:25;;;;;;;2.25;1.05;;;16.30;67.50;;;;;;5113449;28;20032;-70
2022/04/25 09:21:51;;;;;;;1.60;1.45;;;16.10;68.80;;;;;;5113410;28;20023;-70
2022/04/25 09:24:20;;;;;;;2.55;1.45;;;16.10;69.80;;;;;;5112765;28;20051;-69
2022/04/25 09:26:49;;;;;;;1.95;1.17;;;16.00;70.90;;;;;;5113562;28;20361;-70
2022/04/25 09:29:16;;;;;;;1.27;1.10;;;16.00;70.30;;;;;;5112916;28;20038;-70
2022/04/25 09:31:48;;;;;;;2.45;1.45;;;16.10;70.10;;;;;;5113237;28;20034;-70
2022/04/25 09:34:15;;;;;;;1.67;1.20;;;16.20;70.30;;;;;;5112771;28;20073;-70
2022/04/25 09:36:48;;;;;;;2.83;1.10;;;16.20;69.90;;;;;;5113114;28;20031;-69
2022/04/25 09:39:28;;;;;;;4.05;1.42;;;16.20;69.70;;;;;;5112393;28;20365;-70
2022/04/25 09:41:53;;;;;;;2.00;1.45;;;16.20;70.20;;;;;;5113304;28;20107;-70
2022/04/25 09:44:19;;;;;;;1.90;1.00;;;16.30;70.30;;;;;;5112367;28;20055;-70
2022/04/25 09:46:48;;;;;;;3.45;1.30;;;16.20;68.30;;;;;;5113119;28;20037;-70
2022/04/25 09:49:23;;;;;;;2.25;1.10;;;16.30;68.70;;;;;;5112419;28;20081;-70
2022/04/25 09:52:02;;;;;;;3.00;1.10;;;16.20;67.40;;;;;;5113110;28;20024;-70
2022/04/25 09:54:28;;;;;;;1.17;1.00;;;16.00;68.20;;;;;;5112611;28;20038;-70
2022/04/25 09:56:54;;;;;;;3.78;1.10;;;16.00;68.80;;;;;;5113161;28;20028;-70
2022/04/25 09:59:21;;;;;;;2.83;1.30;;;16.00;68.80;;;;;;5112753;28;20031;-70
2022/04/25 10:02:03;;;;;;;1.40;1.30;;;16.10;69.30;;;;;;5113165;28;20031;-70
2022/04/25 10:04:32;;;;;;;1.60;1.40;;;16.20;67.80;;;;;;5112390;28;20034;-70
2022/04/25 10:07:00;;;;;;;1.27;1.17;;;16.20;66.90;;;;;;5112854;28;20031;-70
2022/04/25 10:09:30;;;;;;;1.50;1.40;;;16.20;67.70;;;;;;5112121;28;20122;-70
2022/04/25 10:11:58;;;;;;;1.40;1.20;;;16.20;66.00;;;;;;5113224;28;20050;-70
2022/04/25 10:14:25;;;;;;;6.68;1.67;;;16.30;66.60;;;;;;5111898;28;20048;-70
2022/04/25 10:16:53;;;;;;;3.63;1.83;;;16.40;67.10;;;;;;5113054;28;20023;-70
2022/04/25 10:19:20;;;;;;;4.03;1.60;;;16.60;67.30;;;;;;5111823;28;20027;-70
2022/04/25 10:21:47;;;;;;;3.88;1.65;;;16.70;65.90;;;;;;5112412;27;20024;-70
2022/04/25 10:24:18;;;;;;;1.60;1.50;;;16.70;66.20;;;;;;5112117;28;20028;-70
2022/04/25 10:26:44;;;;;;;1.90;1.70;;;16.70;64.80;;;;;;5112673;28;20031;-70
2022/04/25 10:29:13;;;;;;;4.75;1.63;;;16.70;65.60;;;;;;5112601;28;20031;-70
2022/04/25 10:31:43;;;;;;;2.17;1.77;;;16.70;65.00;;;;;;5111377;28;20038;-70
2022/04/25 10:34:10;;;;;;;2.10;1.90;;;16.70;65.70;;;;;;5112332;28;20045;-70
2022/04/25 10:36:39;;;;;;;2.00;1.83;;;16.70;64.70;;;;;;5111122;28;20357;-70
2022/04/25 10:39:24;;;;;;;2.50;1.73;;;16.70;64.40;;;;;;5112439;28;20054;-70
2022/04/25 10:44:53;;;;;;;4.20;2.17;;;16.70;64.70;;;;;;5112347;28;20039;-70
2022/04/25 10:47:21;;;;;;;2.90;2.35;;;16.70;64.20;;;;;;5111714;28;20076;-70
2022/04/25 10:49:53;;;;;;;2.13;1.80;;;16.80;64.20;;;;;;5112348;28;20038;-70
2022/04/25 10:52:34;;;;;;;3.15;2.10;;;16.90;64.30;;;;;;5112173;28;20023;-70
2022/04/25 10:55:19;;;;;;;3.22;2.20;;;16.90;63.90;;;;;;5112142;28;20369;-70
2022/04/25 10:58:18;;;;;;;5.10;2.28;;;17.00;63.80;;;;;;5112301;28;20118;-70
2022/04/25 11:00:46;;;;;;;4.78;2.58;;;16.70;61.50;;;;;;5068301;28;20122;-70
2022/04/25 11:03:31;;;;;;;2.30;2.08;;;16.70;62.30;;;;;;5092034;28;20035;-70
2022/04/25 11:06:00;;;;;;;2.50;2.30;;;16.70;62.50;;;;;;5091839;28;20025;-70
2022/04/25 11:08:36;;;;;;;3.42;2.60;;;16.60;62.30;;;;;;5091232;28;20028;-70
2022/04/25 11:11:08;;;;;;;2.35;2.13;;;16.60;62.40;;;;;;5091812;28;20024;-70
2022/04/25 11:13:35;;;;;;;;;;;16.60;63.10;;;;;;5091362;28;20028;-70
2022/04/25 11:16:15;;;;;;;3.47;2.60;;;16.60;63.40;;;;;;5091367;28;19904;-70
2022/04/25 11:18:41;;;;;;;4.80;2.60;;;16.70;63.40;;;;;;5090939;28;20024;-70
2022/04/25 11:21:13;;;;;;;3.53;3.13;;;16.70;63.00;;;;;;5091375;28;20534;-69
2022/04/25 11:23:44;;;;;;;2.90;2.58;;;16.80;62.40;;;;;;5091186;28;20060;-71
2022/04/25 11:26:36;;;;;;;3.70;3.10;;;16.70;61.90;;;;;;5091585;28;20035;-70
2022/04/25 11:29:10;;;;;;;4.68;2.60;;;16.70;61.10;;;;;;5091395;28;20373;-70
2022/04/25 11:31:38;;;;;;;3.10;2.70;;;16.70;60.30;;;;;;5091061;28;20032;-70
2022/04/25 11:34:11;;;;;;;3.03;2.70;;;16.70;58.80;;;;;;5091465;28;20024;-71
2022/04/25 11:36:38;;;;;;;5.15;2.63;;;16.60;57.50;;;;;;5090823;28;20123;-71
2022/04/25 11:41:48;;;;;;;8.27;2.70;;;16.70;59.90;;;;;;5091624;28;20031;-70
2022/04/25 11:44:14;;;;;;;4.68;2.90;;;16.80;60.10;;;;;;5091581;28;20020;-70
2022/04/25 11:46:41;;;;;;;5.68;3.20;;;16.90;60.90;;;;;;5092343;28;20028;-70
2022/04/25 11:49:07;;;;;;;3.97;3.20;;;16.90;58.50;;;;;;5093974;28;20032;-70
2022/04/25 11:51:33;;;;;;;3.58;3.28;;;17.00;59.10;;;;;;5094527;28;20046;-70
2022/04/25 11:54:06;;;;;;;6.78;3.20;;;17.00;57.60;;;;;;5095320;28;20066;-70
2022/04/25 11:56:35;;;;;;;5.03;3.40;;;17.00;57.60;;;;;;5094535;28;20024;-70
2022/04/25 11:59:17;;;;;;;4.60;2.90;;;16.90;57.50;;;;;;5095134;28;20134;-70
2022/04/25 12:01:47;;;;;;;3.80;2.80;;;16.90;58.60;;;;;;5094361;28;20026;-70
2022/04/25 12:04:14;;;;;;;3.75;2.70;;;16.90;59.00;;;;;;5095049;28;20026;-69
2022/04/25 12:06:47;;;;;;;4.03;2.90;;;16.80;57.30;;;;;;5094215;28;20076;-69
2022/04/25 12:17:46;;;;;;;4.25;3.55;;;16.90;59.40;;;;;;5093915;28;20101;-70
2022/04/25 12:20:16;;;;;;;4.68;3.00;;;16.90;58.20;;;;;;5094721;28;20024;-69
2022/04/25 12:22:59;;;;;;;5.20;3.53;;;16.90;57.80;;;;;;5093811;28;20032;-69
2022/04/25 12:25:29;;;;;;;3.70;3.17;;;16.90;58.10;;;;;;5093748;28;20500;-70
2022/04/25 12:28:04;;;;;;;4.30;3.60;;;16.90;57.60;;;;;;5105315;28;20028;-70
2022/04/25 12:31:03;;;;;;;7.25;4.05;;;16.90;58.20;;;;;;5114042;28;20102;-70
2022/04/25 12:33:33;;;;;;;4.88;4.03;;;16.80;59.70;;;;;;5079650;28;20036;-69
2022/04/25 12:36:24;;;;;;;4.70;4.30;;;16.80;60.60;;;;;;5114793;28;20024;-70
2022/04/25 12:38:53;;;;;;;6.03;4.70;;;16.70;60.20;;;;;;5114686;28;20035;-70
2022/04/25 12:41:28;;;;;;;5.00;4.35;;;16.60;60.40;;;;;;5114779;28;20034;-70
2022/04/25 12:43:56;;;;;;;4.75;4.25;;;16.60;61.00;;;;;;5115042;28;20462;-70
2022/04/25 12:46:39;;;;;;;6.07;4.03;;;16.60;62.20;;;;;;5114327;28;20391;-69
2022/04/25 12:49:20;;;;;;;6.78;4.20;;;16.60;62.60;;;;;;5114594;28;20031;-70
2022/04/25 12:51:54;;;;;;;8.20;4.22;;;16.50;60.90;;;;;;5113908;28;20032;-70
2022/04/25 12:54:37;;;;;;;4.32;3.42;;;16.50;61.80;;;;;;5114503;28;20026;-70
2022/04/25 12:57:16;;;;;;;3.63;2.88;;;16.40;60.80;;;;;;5114106;28;20425;-70
2022/04/25 13:00:00;;;;;;;5.00;3.28;;;16.20;61.10;;;;;;5112517;28;20039;-70
2022/04/25 13:02:35;;;;;;;7.57;3.05;;;15.90;62.60;;;;;;5113659;28;20024;-71
2022/04/25 13:05:11;;;;;;;4.15;2.50;;;15.90;63.20;;;;;;5114271;28;20016;-70
2022/04/25 13:07:46;;;;;;;3.60;2.53;;;15.80;63.10;;;;;;5113662;28;20034;-69
2022/04/25 13:10:20;;;;;;;3.45;2.42;;;15.80;63.80;;;;;;5113626;28;20038;-70
2022/04/25 13:12:50;;;;;;;4.05;2.63;;;15.70;63.80;;;;;;5113596;28;20413;-70
2022/04/25 13:15:18;;;;;;;2.90;2.45;;;15.70;64.30;;;;;;5113638;28;20051;-70
2022/04/25 13:17:44;;;;;;;3.13;2.88;;;15.70;65.10;;;;;;5113422;28;20036;-70
2022/04/25 13:20:16;;;;;;;4.15;3.30;;;15.60;65.10;;;;;;5114200;28;20038;-70
2022/04/25 13:22:43;;;;;;;4.18;3.45;;;15.50;65.20;;;;;;5113213;28;20024;-69
2022/04/25 13:25:10;;;;;;;4.28;3.88;;;15.50;65.60;;;;;;5113732;28;20063;-70
2022/04/25 13:27:36;;;;;;;8.38;4.05;;;15.50;66.60;;;;;;5113050;28;20035;-70
2022/04/25 13:30:07;;;;;;;4.60;4.15;;;15.60;65.20;;;;;;5113562;28;20027;-71
2022/04/25 13:32:33;;;;;;;6.80;4.18;;;15.60;66.50;;;;;;5112729;28;20126;-70
2022/04/25 13:34:59;;;;;;;5.20;4.40;;;15.60;64.60;;;;;;5113470;28;20051;-70
2022/04/25 13:37:26;;;;;;;5.13;4.63;;;15.70;65.40;;;;;;5113007;28;20062;-70
2022/04/25 13:39:52;;;;;;;7.32;4.43;;;15.70;63.70;;;;;;5113113;28;20387;-70